Time;durP1;ratioP1;P1;durP2;ratioP2;P2;SDS_P1;SDS_P2;PMS_P1;PMS_P2;Temp;Humidity;BMP_temperature;BMP_pressure;BME280_temperature;BME280_humidity;BME280_pressure;Samples;Min_cycle;Max_cycle;Signal;HPM_P1;HPM_P2
2022/10/01 00:01:48;;;;;;;8.02;4.35;;;;;;;8.96;68.23;96427.84;4994352;28;20058;-80
2022/10/01 00:04:16;;;;;;;5.95;4.60;;;;;;;8.92;68.11;96432.59;4995094;28;20058;-82
2022/10/01 00:06:45;;;;;;;6.45;4.38;;;;;;;8.87;68.29;96424.50;4996143;28;20105;-81
2022/10/01 00:09:13;;;;;;;6.15;5.22;;;;;;;8.84;68.65;96436.06;4996120;28;20047;-81
2022/10/01 00:11:41;;;;;;;7.25;4.82;;;;;;;8.84;68.49;96436.06;4995574;28;20097;-81
2022/10/01 00:14:09;;;;;;;5.32;4.18;;;;;;;8.89;69.12;96437.34;4995378;28;20081;-82
2022/10/01 00:16:37;;;;;;;6.03;4.72;;;;;;;8.92;68.88;96430.00;4994907;28;20061;-82
2022/10/01 00:19:04;;;;;;;5.85;4.47;;;;;;;8.97;69.64;96429.47;4995324;28;20062;-82
2022/10/01 00:21:32;;;;;;;6.00;4.85;;;;;;;8.99;69.47;96428.31;4993987;28;20112;-81
2022/10/01 00:24:04;;;;;;;8.75;5.22;;;;;;;9.03;69.67;96433.97;4994910;28;20054;-81
2022/10/01 00:26:33;;;;;;;8.05;4.57;;;;;;;9.08;69.94;96427.25;4994173;28;20126;-82
2022/10/01 00:29:04;;;;;;;9.23;5.32;;;;;;;9.15;69.61;96431.75;4994052;28;20050;-82
2022/10/01 00:31:32;;;;;;;6.50;5.00;;;;;;;9.17;69.54;96432.38;4993118;28;20053;-81
2022/10/01 00:34:02;;;;;;;7.75;5.07;;;;;;;9.23;70.65;96434.28;4994337;28;20695;-81
2022/10/01 00:36:31;;;;;;;7.43;5.38;;;;;;;9.26;69.49;96431.31;4994086;28;20047;-82
2022/10/01 00:38:59;;;;;;;5.53;4.80;;;;;;;9.27;69.84;96417.31;4994577;28;20050;-82
2022/10/01 00:41:31;;;;;;;9.15;6.40;;;;;;;9.28;69.78;96430.16;4993787;28;20093;-82
2022/10/01 00:44:02;;;;;;;7.45;5.50;;;;;;;9.28;69.53;96429.34;4994539;28;20054;-82
2022/10/01 00:46:39;;;;;;;6.72;4.90;;;;;;;9.32;71.67;96430.63;4994516;28;20046;-82
2022/10/01 00:49:10;;;;;;;6.72;4.63;;;;;;;9.36;70.39;96423.25;4994347;28;20054;-80
2022/10/01 00:51:43;;;;;;;8.55;4.72;;;;;;;9.42;71.18;96418.16;4993545;28;20097;-80
2022/10/01 00:54:15;;;;;;;7.78;5.55;;;;;;;9.45;71.15;96419.59;4993668;28;20476;-80
2022/10/01 00:56:45;;;;;;;5.85;4.82;;;;;;;9.50;71.42;96422.47;4993903;28;20050;-79
2022/10/01 00:59:15;;;;;;;7.97;5.30;;;;;;;9.56;71.09;96419.16;4993621;28;20046;-82
2022/10/01 01:01:43;;;;;;;8.15;4.85;;;;;;;9.58;71.90;96408.56;4992338;28;20050;-82
2022/10/01 01:04:16;;;;;;;8.30;5.22;;;;;;;9.61;71.10;96411.59;4993232;28;20050;-82
2022/10/01 01:06:44;;;;;;;8.95;6.00;;;;;;;9.62;70.28;96407.19;4993488;28;20050;-79
2022/10/01 01:09:12;;;;;;;8.18;5.95;;;;;;;9.62;69.84;96408.00;4995267;28;20557;-79
2022/10/01 01:11:49;;;;;;;8.50;6.25;;;;;;;9.64;71.72;96413.03;4994813;28;20551;-79
2022/10/01 01:14:22;;;;;;;9.25;5.15;;;;;;;9.68;71.08;96412.47;4995159;28;20054;-80
2022/10/01 01:16:56;;;;;;;6.38;4.78;;;;;;;9.70;70.06;96407.09;4996745;28;20058;-80
2022/10/01 01:19:36;;;;;;;7.75;5.07;;;;;;;9.66;69.05;96403.22;4994863;28;20050;-79
2022/10/01 01:22:06;;;;;;;5.93;4.82;;;;;;;9.61;69.11;96405.56;4993524;28;20057;-80
2022/10/01 01:24:48;;;;;;;7.13;4.93;;;;;;;9.60;70.46;96396.13;4993867;28;20047;-80
2022/10/01 01:27:27;;;;;;;6.43;5.15;;;;;;;9.58;68.98;96395.53;4993499;28;20062;-79
2022/10/01 01:30:02;;;;;;;5.45;4.28;;;;;;;9.54;68.92;96386.47;4993226;28;20509;-80
2022/10/01 01:32:36;;;;;;;5.88;4.82;;;;;;;9.45;69.03;96391.75;4993402;28;20078;-79
2022/10/01 01:35:08;;;;;;;6.80;4.93;;;;;;;9.39;68.96;96392.47;4993278;28;20467;-80
2022/10/01 01:37:40;;;;;;;6.28;4.13;;;;;;;9.32;69.19;96375.97;4993455;28;20058;-80
2022/10/01 01:40:12;;;;;;;5.90;4.25;;;;;;;9.27;69.18;96373.06;4993277;28;20057;-80
2022/10/01 01:42:42;;;;;;;4.57;4.10;;;;;;;9.22;69.21;96375.41;4993391;28;20056;-80
2022/10/01 01:45:19;;;;;;;6.35;5.28;;;;;;;9.15;69.13;96380.50;5014368;28;20035;-79
2022/10/01 01:47:48;;;;;;;7.68;5.38;;;;;;;9.12;69.30;96380.88;5015190;28;20086;-80
2022/10/01 01:50:17;;;;;;;5.70;4.78;;;;;;;9.11;69.65;96386.25;4997075;28;20082;-80
2022/10/01 01:52:45;;;;;;;5.47;4.32;;;;;;;9.15;69.78;96380.50;5003143;28;20058;-80
2022/10/01 01:55:12;;;;;;;8.40;4.72;;;;;;;9.16;69.56;96373.50;5013237;28;20050;-79
2022/10/01 01:57:43;;;;;;;5.95;4.95;;;;;;;9.14;69.42;96365.06;5012988;28;20373;-80
2022/10/01 02:00:13;;;;;;;5.85;4.50;;;;;;;9.12;69.71;96369.63;4995591;28;20043;-80
2022/10/01 02:02:47;;;;;;;5.85;4.72;;;;;;;9.10;70.04;96361.22;4996945;28;20452;-79
2022/10/01 02:05:20;;;;;;;4.65;4.15;;;;;;;9.11;70.22;96362.84;4996719;28;20046;-80
2022/10/01 02:08:04;;;;;;;6.07;3.92;;;;;;;9.13;70.69;96363.47;4999118;28;20053;-83
2022/10/01 02:10:45;;;;;;;5.60;4.53;;;;;;;9.18;70.50;96358.53;4998177;28;20066;-83
2022/10/01 02:13:25;;;;;;;5.13;4.38;;;;;;;9.19;70.09;96354.94;5000919;28;20104;-83
2022/10/01 02:16:03;;;;;;;5.50;4.63;;;;;;;9.18;70.23;96355.91;4999334;28;20124;-82
2022/10/01 02:18:39;;;;;;;5.63;4.65;;;;;;;9.17;69.94;96362.13;4998713;28;20049;-82
2022/10/01 02:21:12;;;;;;;4.85;4.15;;;;;;;9.15;70.06;96356.28;4996211;28;20567;-80
2022/10/01 02:26:24;;;;;;;9.13;5.20;;;;;;;9.13;70.19;96355.66;6024857;23;20047;-81
2022/10/01 02:29:01;;;;;;;6.18;5.07;;;;;;;9.14;70.11;96354.66;5014095;28;20054;-82
2022/10/01 02:31:36;;;;;;;6.03;4.80;;;;;;;9.12;70.36;96359.22;5016656;28;20066;-83
2022/10/01 02:34:09;;;;;;;6.65;4.72;;;;;;;9.05;70.32;96357.38;4996101;28;20142;-82
2022/10/01 02:36:42;;;;;;;7.40;4.78;;;;;;;9.01;70.57;96356.09;4996580;28;20118;-82
2022/10/01 02:39:14;;;;;;;5.57;4.55;;;;;;;8.97;70.37;96347.03;4996454;28;20078;-82
2022/10/01 02:41:49;;;;;;;6.00;5.00;;;;;;;8.92;71.05;96349.38;4996909;28;20050;-82
2022/10/01 02:44:23;;;;;;;9.73;5.40;;;;;;;8.88;71.01;96350.69;4993730;28;20046;-83
2022/10/01 02:47:11;;;;;;;6.07;4.85;;;;;;;8.84;71.36;96346.84;4995127;28;20057;-83
2022/10/01 02:49:43;;;;;;;6.85;4.68;;;;;;;8.81;71.32;96352.38;4993575;28;20086;-82
2022/10/01 02:52:24;;;;;;;5.78;4.82;;;;;;;8.77;71.24;96346.72;4995127;28;20051;-83
2022/10/01 02:55:01;;;;;;;6.53;5.38;;;;;;;8.73;71.07;96344.66;4995003;28;20065;-82
2022/10/01 02:57:32;;;;;;;9.02;5.20;;;;;;;8.70;71.09;96337.19;4996727;28;20070;-82
2022/10/01 03:00:06;;;;;;;7.97;5.15;;;;;;;8.66;71.31;96331.56;4994668;28;20062;-82
2022/10/01 03:02:42;;;;;;;7.78;5.72;;;;;;;8.61;71.27;96326.84;4995408;28;20054;-82
2022/10/01 03:05:27;;;;;;;6.75;5.40;;;;;;;8.59;71.27;96331.44;4994601;28;20057;-82
2022/10/01 03:08:15;;;;;;;7.43;5.28;;;;;;;8.57;71.38;96320.41;4995650;28;20101;-82
2022/10/01 03:10:50;;;;;;;7.65;6.20;;;;;;;8.56;71.77;96324.00;4995731;28;20051;-82
2022/10/01 03:13:28;;;;;;;7.43;6.15;;;;;;;8.56;71.45;96326.59;4995909;28;20114;-83
2022/10/01 03:16:00;;;;;;;8.03;5.47;;;;;;;8.56;71.36;96329.19;4993181;28;20055;-82
2022/10/01 03:18:46;;;;;;;11.20;6.20;;;;;;;8.55;71.65;96332.78;4996117;28;20288;-82
2022/10/01 03:21:24;;;;;;;7.90;6.18;;;;;;;8.54;71.65;96327.75;4995258;28;20046;-82
2022/10/01 03:24:04;;;;;;;6.10;5.07;;;;;;;8.56;71.61;96331.78;4996838;28;20051;-82
2022/10/01 03:26:34;;;;;;;7.72;5.90;;;;;;;8.55;71.84;96327.59;4994579;28;20043;-82
2022/10/01 03:29:12;;;;;;;7.40;5.40;;;;;;;8.57;71.76;96328.22;4996086;28;20039;-82
2022/10/01 03:32:08;;;;;;;7.70;6.05;;;;;;;8.57;71.69;96333.41;4994023;28;20117;-82
2022/10/01 03:42:45;;;;;;;12.20;5.80;;;;;;;8.55;71.89;96330.19;5960698;23;20065;-80
2022/10/01 03:45:14;;;;;;;7.10;4.95;;;;;;;8.58;71.38;96331.63;5012257;28;20292;-80
2022/10/01 03:47:51;;;;;;;5.82;4.80;;;;;;;8.60;71.37;96330.47;5012225;28;20050;-82
2022/10/01 03:50:20;;;;;;;5.60;4.53;;;;;;;8.61;71.29;96326.84;5010547;28;20054;-82
2022/10/01 03:52:54;;;;;;;6.25;4.45;;;;;;;8.61;71.20;96319.06;5013136;28;20050;-82
2022/10/01 03:55:26;;;;;;;5.85;4.82;;;;;;;8.59;71.33;96315.84;5013209;28;20034;-83
2022/10/01 03:58:01;;;;;;;7.28;4.47;;;;;;;8.58;71.29;96301.22;5009851;28;20054;-83
2022/10/01 04:00:31;;;;;;;8.30;5.40;;;;;;;8.57;71.06;96304.00;5012049;28;20054;-82
2022/10/01 04:03:03;;;;;;;6.93;5.47;;;;;;;8.55;71.37;96306.78;5011599;28;20058;-82
2022/10/01 04:05:37;;;;;;;6.47;5.15;;;;;;;8.56;71.32;96318.00;5013442;28;20085;-83
2022/10/01 04:08:09;;;;;;;8.13;5.30;;;;;;;8.57;71.14;96315.22;5013840;28;20054;-82
2022/10/01 04:10:41;;;;;;;5.50;4.95;;;;;;;8.58;71.27;96309.03;5011573;28;20522;-83
2022/10/01 04:13:19;;;;;;;6.57;5.65;;;;;;;8.60;71.39;96314.06;5012653;28;20046;-82
2022/10/01 04:15:54;;;;;;;6.45;5.22;;;;;;;8.55;71.29;96301.59;5013124;28;20050;-82
2022/10/01 04:18:26;;;;;;;8.45;6.18;;;;;;;8.51;71.43;96296.91;5011965;28;20054;-83
2022/10/01 04:20:58;;;;;;;10.90;5.82;;;;;;;8.50;71.54;96290.88;5011722;28;20081;-83
2022/10/01 04:23:30;;;;;;;5.65;4.47;;;;;;;8.53;71.50;96293.16;5012634;28;20050;-83
2022/10/01 04:26:04;;;;;;;6.10;5.00;;;;;;;8.56;71.52;96292.00;5015189;28;20045;-83
2022/10/01 04:28:38;;;;;;;5.55;4.90;;;;;;;8.57;71.29;96294.41;5015116;28;20050;-83
2022/10/01 04:31:33;;;;;;;6.22;5.15;;;;;;;8.60;71.26;96283.66;5007538;28;20596;-82
2022/10/01 04:34:50;;;;;;;7.40;5.38;;;;;;;8.63;71.23;96283.28;5008723;28;20054;-83
2022/10/01 04:37:29;;;;;;;7.68;5.30;;;;;;;8.69;71.30;96275.78;5006957;28;20056;-82
2022/10/01 04:39:59;;;;;;;7.75;6.47;;;;;;;8.70;70.86;96288.59;5008925;28;20034;-82
2022/10/01 04:42:34;;;;;;;7.32;5.70;;;;;;;8.69;70.81;96291.38;5010901;28;20077;-82
2022/10/01 04:45:09;;;;;;;7.25;5.68;;;;;;;8.68;70.95;96287.16;5009778;28;20069;-83
2022/10/01 04:48:00;;;;;;;8.02;5.60;;;;;;;8.63;71.13;96288.50;5008877;28;20074;-82
2022/10/01 04:59:27;;;;;;;8.18;5.15;;;;;;;8.56;71.12;96279.78;4968833;28;20098;-83
2022/10/01 05:02:39;;;;;;;6.90;5.72;;;;;;;8.55;71.23;96285.16;4955440;29;20047;-82
2022/10/01 05:05:37;;;;;;;6.60;4.88;;;;;;;8.56;70.78;96284.19;4968257;29;20055;-82
2022/10/01 05:08:25;;;;;;;6.47;5.32;;;;;;;8.58;71.13;96280.44;4967313;28;20075;-83
2022/10/01 05:11:24;;;;;;;9.18;5.68;;;;;;;8.62;71.00;96286.09;4952653;29;20091;-82
2022/10/01 05:14:36;;;;;;;6.80;5.80;;;;;;;8.61;70.75;96280.06;4932259;29;20075;-82
2022/10/01 05:17:35;;;;;;;5.95;5.32;;;;;;;8.60;70.82;96283.66;4955983;29;20103;-83
2022/10/01 05:20:12;;;;;;;6.30;4.97;;;;;;;8.58;70.77;96285.63;4967070;28;20054;-82
2022/10/01 05:22:46;;;;;;;6.93;5.10;;;;;;;8.59;70.84;96279.47;5003906;28;20072;-82
2022/10/01 05:25:20;;;;;;;5.33;4.67;;;;;;;8.59;70.72;96284.66;5004026;28;20054;-82
2022/10/01 05:28:07;;;;;;;5.38;4.50;;;;;;;8.57;70.56;96284.03;5002873;28;20296;-82
2022/10/01 05:31:00;;;;;;;5.57;4.13;;;;;;;8.55;70.52;96296.38;5002658;28;20141;-81
2022/10/01 05:39:27;;;;;;;5.03;4.53;;;;;;;8.54;70.59;96289.56;5010518;28;20125;-82
2022/10/01 05:42:08;;;;;;;4.50;3.85;;;;;;;8.51;70.77;96291.72;5023511;28;20052;-82
2022/10/01 05:44:39;;;;;;;5.97;4.18;;;;;;;8.50;70.69;96282.28;5026291;28;20049;-82
2022/10/01 05:47:07;;;;;;;5.50;4.57;;;;;;;8.50;70.65;96298.69;5005165;28;20137;-81
2022/10/01 05:49:38;;;;;;;5.68;4.70;;;;;;;8.50;70.60;96292.69;5004206;28;20054;-82
2022/10/01 05:52:06;;;;;;;6.47;4.35;;;;;;;8.51;70.86;96292.53;5004453;28;20048;-82
2022/10/01 05:54:34;;;;;;;6.30;5.15;;;;;;;8.51;71.06;96287.31;5005418;28;20050;-82
2022/10/01 05:57:02;;;;;;;6.20;5.07;;;;;;;8.54;70.79;96289.56;5017835;28;20080;-81
2022/10/01 05:59:30;;;;;;;5.13;4.63;;;;;;;8.57;71.63;96286.63;5008808;28;20066;-80
2022/10/01 06:02:01;;;;;;;6.45;5.28;;;;;;;8.64;71.69;96276.31;4991275;28;20057;-82
2022/10/01 06:04:33;;;;;;;5.63;4.95;;;;;;;8.69;71.51;96278.38;5015547;28;20058;-81
2022/10/01 06:07:19;;;;;;;9.55;4.72;;;;;;;8.76;71.60;96285.28;4991045;28;20050;-82
2022/10/01 06:09:47;;;;;;;5.15;4.60;;;;;;;8.80;71.11;96277.94;5003952;28;20149;-82
2022/10/01 06:12:17;;;;;;;5.70;4.47;;;;;;;8.82;71.00;96270.78;5000969;28;20097;-82
2022/10/01 06:15:13;;;;;;;8.00;5.00;;;;;;;8.85;71.27;96271.25;5003710;28;20070;-82
2022/10/01 06:17:44;;;;;;;5.15;4.53;;;;;;;8.89;71.14;96265.66;5000827;28;20062;-81
2022/10/01 06:20:15;;;;;;;5.68;4.75;;;;;;;8.91;71.14;96269.69;5007657;28;20050;-82
2022/10/01 06:22:52;;;;;;;8.48;4.40;;;;;;;8.93;70.86;96262.53;5012700;28;20105;-81
2022/10/01 06:25:20;;;;;;;5.85;4.60;;;;;;;8.97;70.94;96253.38;5005528;28;20050;-82
2022/10/01 06:28:30;;;;;;;5.05;4.13;;;;;;;8.98;71.25;96247.16;4999010;28;20054;-82
2022/10/01 06:31:21;;;;;;;5.07;4.32;;;;;;;9.03;71.24;96242.25;4999756;28;20050;-81
2022/10/01 06:33:52;;;;;;;5.22;4.07;;;;;;;9.07;70.80;96240.91;4976607;28;20130;-79
2022/10/01 06:36:30;;;;;;;4.28;3.83;;;;;;;9.08;70.75;96239.91;5000020;28;20082;-81
2022/10/01 06:39:01;;;;;;;6.43;4.85;;;;;;;9.12;71.05;96223.91;4984327;28;20055;-81
2022/10/01 06:41:29;;;;;;;5.10;4.35;;;;;;;9.15;71.04;96224.38;4978538;28;20074;-81
2022/10/01 06:43:58;;;;;;;4.78;4.20;;;;;;;9.20;71.15;96226.44;4995256;28;20489;-81
2022/10/01 06:46:27;;;;;;;5.75;4.60;;;;;;;9.25;71.69;96235.31;4978892;28;20436;-80
2022/10/01 06:48:57;;;;;;;5.70;4.22;;;;;;;9.31;70.99;96233.75;4976987;28;20062;-81
2022/10/01 06:54:10;;;;;;;5.55;3.80;;;;;;;9.37;70.58;96240.84;4990434;28;20140;-81
2022/10/01 06:56:39;;;;;;;5.68;4.40;;;;;;;9.39;70.56;96240.69;4995800;28;20055;-81
2022/10/01 06:59:07;;;;;;;6.82;4.43;;;;;;;9.43;70.61;96234.91;4995423;28;20050;-81
2022/10/01 07:01:36;;;;;;;4.80;4.07;;;;;;;9.48;70.79;96239.56;4976963;28;20078;-81
2022/10/01 07:04:14;;;;;;;5.75;4.57;;;;;;;9.52;70.71;96238.22;4987303;28;20050;-81
2022/10/01 07:06:44;;;;;;;4.80;4.30;;;;;;;9.59;71.78;96230.47;4978885;28;20112;-80
2022/10/01 07:09:13;;;;;;;7.57;4.95;;;;;;;9.64;71.00;96233.31;4990850;28;20093;-81
2022/10/01 07:11:41;;;;;;;4.70;4.25;;;;;;;9.68;70.68;96229.38;4989032;28;20061;-82
2022/10/01 07:14:10;;;;;;;4.45;4.05;;;;;;;9.73;71.44;96234.84;5008783;28;20069;-82
2022/10/01 07:22:05;;;;;;;6.40;4.50;;;;;;;9.81;70.65;96213.88;5196057;23;20065;-79
2022/10/01 07:24:38;;;;;;;4.80;4.18;;;;;;;9.82;69.96;96212.88;4999970;28;20104;-81
2022/10/01 07:27:09;;;;;;;5.22;4.30;;;;;;;9.81;70.45;96216.47;5465955;23;20030;-81
2022/10/01 07:29:37;;;;;;;5.60;4.13;;;;;;;9.85;70.81;96230.72;5005289;28;20047;-81
2022/10/01 07:32:07;;;;;;;5.15;3.88;;;;;;;9.90;71.50;96222.34;5022038;28;20056;-81
2022/10/01 07:34:37;;;;;;;5.18;4.38;;;;;;;9.95;70.82;96221.78;5020586;28;20050;-81
2022/10/01 07:37:05;;;;;;;4.82;4.10;;;;;;;9.97;70.94;96217.22;5006231;28;20077;-80
2022/10/01 07:39:34;;;;;;;4.95;4.20;;;;;;;9.98;71.02;96224.03;4979814;28;20070;-80
2022/10/01 07:42:02;;;;;;;5.88;3.95;;;;;;;10.02;71.06;96226.09;4996603;28;20061;-81
2022/10/01 07:44:30;;;;;;;5.35;4.30;;;;;;;10.06;71.17;96229.13;5014380;28;20046;-81
2022/10/01 07:46:57;;;;;;;6.63;4.93;;;;;;;10.07;71.37;96234.13;4995041;28;20059;-81
2022/10/01 07:49:25;;;;;;;5.60;4.35;;;;;;;10.11;71.49;96237.19;4994059;28;20051;-81
2022/10/01 07:51:54;;;;;;;6.80;4.47;;;;;;;10.12;71.23;96230.97;4976600;28;20047;-80
2022/10/01 07:54:22;;;;;;;8.00;4.80;;;;;;;10.17;71.42;96244.25;4974883;28;20054;-78
2022/10/01 07:56:54;;;;;;;6.32;5.18;;;;;;;10.17;71.57;96236.44;4975382;28;20572;-79
2022/10/01 07:59:22;;;;;;;5.27;4.67;;;;;;;10.19;71.46;96237.06;4985025;28;20060;-78
2022/10/01 08:01:50;;;;;;;4.75;4.15;;;;;;;10.19;71.41;96237.06;4980864;28;20062;-79
2022/10/01 08:07:04;;;;;;;3.78;3.40;;;;;;;10.22;71.95;96235.88;4984610;28;20492;-78
2022/10/01 08:09:31;;;;;;;4.72;3.85;;;;;;;10.25;71.85;96225.06;4974092;28;20062;-77
2022/10/01 08:12:01;;;;;;;4.00;3.53;;;;;;;10.26;71.80;96235.31;4978515;28;20116;-80
2022/10/01 08:14:29;;;;;;;4.03;3.00;;;;;;;10.28;71.60;96229.91;4993595;28;20050;-79
2022/10/01 08:16:57;;;;;;;3.15;2.80;;;;;;;10.28;71.59;96238.53;4981289;28;20055;-78
2022/10/01 08:19:25;;;;;;;3.30;3.00;;;;;;;10.29;71.85;96232.34;4974353;28;20113;-80
2022/10/01 08:21:52;;;;;;;4.30;2.92;;;;;;;10.30;71.99;96228.75;4983126;28;20092;-79
2022/10/01 08:24:20;;;;;;;3.30;2.70;;;;;;;10.33;72.57;96226.78;5005019;28;20046;-79
2022/10/01 08:26:51;;;;;;;5.97;2.92;;;;;;;10.38;73.75;96225.19;4992852;28;20050;-77
2022/10/01 08:29:20;;;;;;;3.22;2.92;;;;;;;10.42;72.53;96238.66;4986727;28;20101;-76
2022/10/01 08:31:48;;;;;;;3.58;2.80;;;;;;;10.44;73.04;96239.28;4972943;28;20105;-77
2022/10/01 08:34:16;;;;;;;3.40;3.05;;;;;;;10.45;72.62;96241.72;4978841;28;20042;-78
2022/10/01 08:36:44;;;;;;;3.88;3.00;;;;;;;10.46;72.59;96243.31;4992754;28;20050;-78
2022/10/01 08:39:12;;;;;;;6.40;2.75;;;;;;;10.47;72.36;96254.53;5004725;23;20043;-79
2022/10/01 08:42:04;;;;;;;6.18;2.70;;;;;;;10.49;72.64;96253.38;4985773;28;20050;-83
2022/10/01 08:44:40;;;;;;;2.95;2.60;;;;;;;10.51;72.90;96251.38;4992983;28;20046;-82
2022/10/01 08:47:13;;;;;;;3.28;2.97;;;;;;;10.52;73.46;96239.16;4976868;28;20054;-82
2022/10/01 08:49:46;;;;;;;3.75;2.70;;;;;;;10.55;72.96;96238.75;4974555;28;20047;-82
2022/10/01 08:52:23;;;;;;;3.20;2.90;;;;;;;10.55;72.84;96243.97;4977051;28;20098;-83
2022/10/01 08:55:26;;;;;;;3.65;2.55;;;;;;;10.58;73.03;96234.97;4996221;28;20047;-83
2022/10/01 09:27:08;;;;;;;2.72;2.50;;;;;;;10.89;74.14;96231.97;5022646;28;20057;-81
2022/10/01 09:41:02;;;;;;;1.77;1.55;;;;;;;11.03;73.59;96223.19;5012232;28;20292;-78
2022/10/01 09:43:33;;;;;;;2.78;2.38;;;;;;;11.05;73.98;96226.41;5017841;28;20061;-75
2022/10/01 09:46:12;;;;;;;2.75;1.60;;;;;;;11.09;73.77;96226.84;5034971;28;20050;-81
2022/10/01 10:36:18;;;;;;;1.73;1.38;;;;;;;11.54;74.42;96287.28;5608490;23;20057;-82
2022/10/01 10:42:32;;;;;;;1.45;1.35;;;;;;;11.54;74.40;96309.00;5093125;23;19905;-81
2022/10/01 10:45:41;;;;;;;1.48;1.38;;;;;;;11.53;74.10;96309.19;5059591;28;20065;-82
2022/10/01 10:48:39;;;;;;;3.42;1.70;;;;;;;11.53;74.87;96296.13;5060422;28;20049;-82
2022/10/01 10:51:21;;;;;;;1.30;1.20;;;;;;;11.53;74.55;96294.31;5060309;28;20033;-82
2022/10/01 10:54:22;;;;;;;3.00;1.42;;;;;;;11.55;74.57;96294.13;5059920;28;20112;-83
2022/10/01 11:00:31;;;;;;;2.03;1.40;;;;;;;11.59;74.99;96284.06;5043586;28;20060;-80
2022/10/01 11:03:02;;;;;;;3.90;1.50;;;;;;;11.59;74.71;96268.38;5032332;28;20057;-81
2022/10/01 11:05:40;;;;;;;1.70;1.38;;;;;;;11.60;75.01;96259.56;5035229;28;20110;-80
2022/10/01 11:08:11;;;;;;;1.67;1.48;;;;;;;11.59;74.69;96258.78;5035452;28;20057;-78
2022/10/01 11:10:53;;;;;;;2.22;1.58;;;;;;;11.57;75.47;96241.66;5022677;28;20109;-81
2022/10/01 11:13:36;;;;;;;2.45;1.77;;;;;;;11.55;75.62;96229.63;5025678;28;20045;-81
2022/10/01 11:16:24;;;;;;;3.58;2.00;;;;;;;11.55;75.66;96224.38;5038475;28;20037;-80
2022/10/01 11:19:07;;;;;;;3.75;1.80;;;;;;;11.55;75.88;96216.56;5035903;28;20053;-81
2022/10/01 11:21:51;;;;;;;2.13;1.73;;;;;;;11.57;75.27;96223.38;5037020;28;20065;-82
2022/10/01 11:24:36;;;;;;;1.38;1.27;;;;;;;11.55;75.53;96219.16;5018025;28;20077;-80
2022/10/01 11:27:13;;;;;;;0.50;0.50;;;;;;;11.56;75.23;96217.34;5024877;28;20115;-79
2022/10/01 11:29:50;;;;;;;3.30;0.98;;;;;;;11.58;74.82;96231.03;5036324;28;20049;-79
2022/10/01 11:32:25;;;;;;;0.95;0.73;;;;;;;11.62;75.38;96210.53;5025993;28;20425;-78
2022/10/01 11:35:13;;;;;;;0.77;0.60;;;;;;;11.68;75.38;96209.75;5019693;28;20041;-79
2022/10/01 11:37:52;;;;;;;1.35;0.75;;;;;;;11.73;75.24;96209.97;5048683;28;20050;-82
2022/10/01 11:40:24;;;;;;;0.95;0.75;;;;;;;11.79;75.17;96222.25;5042337;28;20048;-81
2022/10/01 11:42:55;;;;;;;1.97;1.50;;;;;;;11.87;75.21;96223.84;5032262;28;20503;-80
2022/10/01 11:45:27;;;;;;;2.08;0.85;;;;;;;11.93;75.03;96229.09;5026695;28;20078;-81
2022/10/01 11:47:59;;;;;;;2.30;1.03;;;;;;;12.00;75.57;96225.72;5039220;28;20052;-82
2022/10/01 11:50:30;;;;;;;0.80;0.80;;;;;;;12.08;75.20;96235.97;5045168;28;20061;-81
2022/10/01 11:53:04;;;;;;;0.82;0.82;;;;;;;12.13;75.07;96223.94;5034446;28;20053;-81
2022/10/01 12:01:23;;;;;;;0.47;0.30;;;;;;;12.28;74.41;96231.56;5015101;28;20046;-77
2022/10/01 12:04:17;;;;;;;2.15;0.32;;;;;;;12.32;74.73;96240.59;5026136;28;20034;-82
2022/10/01 12:15:47;;;;;;;0.30;0.30;;;;;;;12.38;75.14;96236.41;4259728;23;20333;-81
2022/10/01 12:18:22;;;;;;;0.30;0.30;;;;;;;12.40;75.21;96246.63;5036168;28;20076;-81
2022/10/01 12:20:52;;;;;;;1.38;0.38;;;;;;;12.40;74.89;96239.63;5049600;28;20114;-80
2022/10/01 12:23:25;;;;;;;0.60;0.60;;;;;;;12.42;75.07;96245.44;5034782;28;20049;-80
2022/10/01 12:26:00;;;;;;;1.35;0.30;;;;;;;12.44;74.90;96245.22;5035563;28;20049;-80
2022/10/01 12:28:33;;;;;;;0.60;0.60;;;;;;;12.44;74.96;96247.84;5051920;28;20053;-80
2022/10/01 12:31:06;;;;;;;;;;;;;;;12.47;74.96;96252.69;5034799;28;20478;-80
2022/10/01 12:33:59;;;;;;;0.50;0.50;;;;;;;12.47;74.75;96252.69;5053173;28;19924;-80
2022/10/01 12:36:33;;;;;;;;;;;;;;;12.48;74.65;96241.22;5049103;28;20056;-80
2022/10/01 12:39:18;;;;;;;0.45;0.20;;;;;;;12.48;74.89;96242.00;5032963;28;19936;-80
2022/10/01 12:41:58;;;;;;;0.40;0.30;;;;;;;12.50;74.46;96241.81;5033644;28;20041;-81
2022/10/01 12:44:44;;;;;;;0.73;0.40;;;;;;;12.49;74.11;96251.47;5022182;28;20550;-81
2022/10/01 12:47:27;;;;;;;1.40;0.50;;;;;;;12.49;74.26;96243.63;5033163;28;20053;-80
2022/10/01 12:50:04;;;;;;;0.40;0.30;;;;;;;12.50;73.67;96245.22;5032563;28;20053;-80
2022/10/01 12:52:43;;;;;;;0.20;0.20;;;;;;;12.50;74.03;96257.50;5050772;28;20100;-81
2022/10/01 12:55:23;;;;;;;0.40;0.40;;;;;;;12.51;73.86;96253.91;5038868;28;20053;-80
2022/10/01 12:58:01;;;;;;;0.40;0.20;;;;;;;12.51;73.51;96257.31;5032447;28;20431;-80
2022/10/01 13:00:34;;;;;;;0.47;0.47;;;;;;;12.52;73.37;96247.66;5045092;28;20056;-80
2022/10/01 13:03:24;;;;;;;1.27;0.20;;;;;;;12.54;73.56;96262.13;5036013;28;20052;-80
2022/10/01 13:06:05;;;;;;;0.60;0.30;;;;;;;12.56;73.51;96259.31;5046462;28;20080;-80
2022/10/01 13:08:52;;;;;;;1.25;0.50;;;;;;;12.58;73.39;96267.78;5035393;28;20581;-80
2022/10/01 13:11:36;;;;;;;0.40;0.40;;;;;;;12.60;73.73;96260.53;5033503;28;20045;-81
2022/10/01 13:14:06;;;;;;;0.30;0.30;;;;;;;12.62;73.20;96271.59;5042541;28;20048;-81
2022/10/01 13:16:41;;;;;;;0.63;0.45;;;;;;;12.64;73.52;96280.06;5053479;28;20040;-80
2022/10/01 13:19:16;;;;;;;0.32;0.30;;;;;;;12.66;73.10;96270.19;5039427;28;20076;-80
2022/10/01 13:21:58;;;;;;;1.40;0.30;;;;;;;12.67;73.43;96287.50;5033235;28;20054;-81
2022/10/01 13:24:32;;;;;;;1.75;0.70;;;;;;;12.71;73.28;96286.09;5034199;28;20470;-81
2022/10/01 13:27:07;;;;;;;0.20;0.20;;;;;;;12.76;73.32;96296.75;5032966;28;20050;-81
2022/10/01 13:29:47;;;;;;;0.40;0.40;;;;;;;12.86;73.39;96295.53;5034584;28;20565;-81
2022/10/01 13:32:27;;;;;;;0.57;0.57;;;;;;;12.95;73.16;96283.84;5059913;28;20049;-82
2022/10/01 13:34:57;;;;;;;0.70;0.50;;;;;;;13.04;72.81;96281.81;5052789;28;20491;-82
2022/10/01 13:37:36;;;;;;;0.30;0.30;;;;;;;13.12;72.54;96279.78;5059401;28;20056;-81
2022/10/01 13:40:20;;;;;;;0.60;0.40;;;;;;;13.21;72.40;96272.50;5047887;28;20074;-81
2022/10/01 13:42:49;;;;;;;0.47;0.32;;;;;;;13.31;72.39;96293.03;5043937;28;20056;-80
2022/10/01 13:45:40;;;;;;;0.45;0.30;;;;;;;13.39;71.95;96277.09;5051557;28;20112;-79
2022/10/01 13:48:17;;;;;;;0.50;0.50;;;;;;;13.43;71.73;96280.94;5022413;28;20060;-82
2022/10/01 13:51:01;;;;;;;0.55;0.47;;;;;;;13.50;71.29;96286.94;5056367;28;20111;-82
2022/10/01 13:53:32;;;;;;;0.40;0.22;;;;;;;13.56;71.14;96296.59;5036121;28;20053;-82
2022/10/01 13:56:01;;;;;;;0.30;0.25;;;;;;;13.58;71.05;96275.44;5037918;28;20137;-82
2022/10/01 13:58:37;;;;;;;0.75;0.57;;;;;;;13.62;70.54;96278.41;5048253;28;20045;-82
2022/10/01 14:01:07;;;;;;;0.30;0.30;;;;;;;13.65;70.85;96280.63;5052684;28;20110;-81
2022/10/01 14:03:51;;;;;;;0.57;0.35;;;;;;;13.73;70.14;96285.63;5056081;28;20068;-81
2022/10/01 14:06:26;;;;;;;0.40;0.40;;;;;;;13.77;69.81;96292.06;5055738;28;20049;-81
2022/10/01 14:09:00;;;;;;;3.83;0.60;;;;;;;13.80;70.13;96281.97;5056066;28;20048;-81
2022/10/01 14:17:09;;;;;;;0.50;0.50;;;;;;;13.95;68.98;96284.31;5053210;28;20045;-81
2022/10/01 14:19:44;;;;;;;1.48;0.30;;;;;;;13.98;69.18;96278.63;5039607;28;20123;-81
2022/10/01 14:22:38;;;;;;;0.32;0.30;;;;;;;14.05;70.00;96283.03;5054619;28;20055;-81
2022/10/01 14:25:33;;;;;;;0.57;0.30;;;;;;;14.12;69.65;96279.34;5036373;28;20092;-81
2022/10/01 14:28:35;;;;;;;2.55;0.40;;;;;;;14.18;69.29;96277.72;5014803;28;20505;-81
2022/10/01 14:31:08;;;;;;;0.60;0.50;;;;;;;14.25;69.16;96278.47;5024940;28;20052;-81
2022/10/01 14:33:54;;;;;;;1.52;0.30;;;;;;;14.31;68.76;96277.63;5054987;28;20053;-81
2022/10/01 14:36:31;;;;;;;0.38;0.38;;;;;;;14.36;68.70;96279.59;5040204;28;20045;-81
2022/10/01 14:39:14;;;;;;;0.55;0.30;;;;;;;14.39;68.12;96280.00;5110727;23;20029;-79
2022/10/01 14:41:42;;;;;;;;;;;;;;;14.45;68.70;96282.75;5024530;28;20054;-79
2022/10/01 14:44:25;;;;;;;0.52;0.30;;;;;;;14.46;67.86;96287.81;5015470;28;19929;-79
2022/10/01 14:46:54;;;;;;;0.55;0.30;;;;;;;14.49;67.98;96297.06;5015257;28;20046;-78
2022/10/01 14:49:27;;;;;;;0.43;0.30;;;;;;;14.49;67.64;96294.44;5015109;28;20104;-79
2022/10/01 14:51:59;;;;;;;0.63;0.43;;;;;;;14.51;67.85;96292.41;5006177;28;20061;-79